Time;durP1;ratioP1;P1;durP2;ratioP2;P2;SDS_P1;SDS_P2;PMS_P1;PMS_P2;Temp;Humidity;BMP_temperature;BMP_pressure;BME280_temperature;BME280_humidity;BME280_pressure;Samples;Min_cycle;Max_cycle;Signal;HPM_P1;HPM_P2
2022/08/29 00:00:45;;;;;;;5.67;2.20;;;;;;;14.38;98.04;101356.06;5014243;28;20527;-70
2022/08/29 00:03:12;;;;;;;4.77;1.83;;;;;;;14.43;97.66;101362.50;5014201;28;20494;-69
2022/08/29 00:05:39;;;;;;;5.83;1.93;;;;;;;14.41;98.05;101354.66;5014045;28;20464;-69
2022/08/29 00:08:06;;;;;;;5.27;1.80;;;;;;;14.46;97.45;101351.81;5013697;28;20804;-69
2022/08/29 00:10:34;;;;;;;5.33;1.73;;;;;;;14.42;97.42;101350.00;5014040;28;20491;-69
2022/08/29 00:13:01;;;;;;;4.93;2.13;;;;;;;14.42;98.07;101350.00;5013924;28;20452;-69
2022/08/29 00:15:27;;;;;;;6.07;2.07;;;;;;;14.43;98.11;101354.34;5013861;28;20491;-69
2022/08/29 00:17:55;;;;;;;9.67;2.07;;;;;;;14.44;98.19;101350.53;5013272;28;20459;-69
2022/08/29 00:20:25;;;;;;;6.00;2.30;;;;;;;14.48;97.42;101354.25;5013909;28;20440;-69
2022/08/29 00:22:51;;;;;;;6.30;1.90;;;;;;;14.52;97.60;101360.69;5013424;28;20539;-69
2022/08/29 00:25:18;;;;;;;4.67;1.60;;;;;;;14.51;97.18;101354.44;5013819;28;20466;-69
2022/08/29 00:27:44;;;;;;;5.57;2.00;;;;;;;14.51;97.80;101356.38;5013982;28;20440;-69
2022/08/29 00:30:12;;;;;;;5.53;1.90;;;;;;;14.55;97.64;101344.53;5013672;28;20488;-71
2022/08/29 00:32:39;;;;;;;4.20;1.63;;;;;;;14.55;98.25;101358.16;5013547;28;20463;-70
2022/08/29 00:35:09;;;;;;;8.43;2.90;;;;;;;14.55;97.96;101349.97;5013707;28;20460;-70
2022/08/29 00:37:35;;;;;;;13.03;2.30;;;;;;;14.55;98.14;101344.53;5013828;28;20451;-70
2022/08/29 00:40:04;;;;;;;4.07;1.60;;;;;;;14.58;98.33;101354.03;5013352;28;20905;-69
2022/08/29 00:42:31;;;;;;;5.57;1.83;;;;;;;14.53;98.20;101352.22;5013842;28;20452;-69
2022/08/29 00:44:57;;;;;;;5.60;2.03;;;;;;;14.54;98.42;101351.09;5013972;28;20468;-69
2022/08/29 00:47:31;;;;;;;6.70;2.00;;;;;;;14.53;98.00;101352.22;5013537;28;20443;-69
2022/08/29 00:49:59;;;;;;;10.07;2.07;;;;;;;14.48;97.99;101352.34;5013696;28;20474;-69
2022/08/29 00:52:32;;;;;;;10.57;2.30;;;;;;;14.46;97.98;101348.28;5013595;28;20443;-69
2022/08/29 00:55:01;;;;;;;6.97;2.00;;;;;;;14.49;97.42;101347.69;5013469;28;20831;-69
2022/08/29 00:57:30;;;;;;;5.50;2.30;;;;;;;14.53;97.40;101352.22;5013491;28;20444;-69
2022/08/29 00:59:57;;;;;;;12.60;2.20;;;;;;;14.53;97.48;101349.50;5013492;28;20486;-69
2022/08/29 01:02:24;;;;;;;6.23;2.20;;;;;;;14.51;97.90;101351.72;5013498;28;20451;-69
2022/08/29 01:04:51;;;;;;;6.20;2.13;;;;;;;14.49;98.16;101350.44;5013354;28;20452;-69
2022/08/29 01:07:19;;;;;;;5.27;1.50;;;;;;;14.49;98.00;101358.59;5013681;28;20447;-69
2022/08/29 01:09:47;;;;;;;8.57;2.47;;;;;;;14.50;97.64;101350.09;5013316;28;20491;-70
2022/08/29 01:12:16;;;;;;;4.90;1.60;;;;;;;14.49;98.20;101355.88;5013519;28;20448;-71
2022/08/29 01:14:48;;;;;;;7.10;1.60;;;;;;;14.45;98.01;101350.19;5013382;28;20526;-71
2022/08/29 01:17:17;;;;;;;8.20;2.20;;;;;;;14.43;98.06;101357.88;5013270;28;20807;-70
2022/08/29 01:19:49;;;;;;;8.40;1.70;;;;;;;14.42;98.46;101360.91;5013298;28;20441;-70
2022/08/29 01:22:33;;;;;;;13.67;2.50;;;;;;;14.29;98.23;101357.91;5013345;28;20519;-70
2022/08/29 01:25:04;;;;;;;5.17;1.80;;;;;;;14.30;98.58;101359.53;5012971;28;21027;-70
2022/08/29 01:27:34;;;;;;;9.37;2.07;;;;;;;14.25;98.83;101367.81;5013574;28;20455;-71
2022/08/29 01:30:00;;;;;;;5.83;1.90;;;;;;;14.15;99.56;101368.03;5016443;28;20480;-71
2022/08/29 01:32:27;;;;;;;7.03;1.63;;;;;;;14.10;100.00;101371.69;5016491;28;20462;-71
2022/08/29 01:34:54;;;;;;;10.83;2.60;;;;;;;14.09;99.66;101377.44;5016661;28;20475;-71
2022/08/29 01:37:21;;;;;;;5.27;1.77;;;;;;;14.08;100.00;101371.19;5017249;28;20439;-70
2022/08/29 01:39:47;;;;;;;6.00;2.47;;;;;;;14.02;100.00;101375.13;5016720;28;20446;-70
2022/08/29 01:42:18;;;;;;;5.90;2.20;;;;;;;13.97;100.00;101379.88;5016398;28;20452;-71
2022/08/29 01:44:48;;;;;;;7.00;2.50;;;;;;;13.93;100.00;101379.66;5016295;28;20979;-71
2022/08/29 01:47:16;;;;;;;4.97;2.03;;;;;;;13.92;100.00;101380.78;5016777;28;20421;-71
2022/08/29 01:49:42;;;;;;;20.43;2.43;;;;;;;13.90;100.00;101377.56;5016624;28;20510;-71
2022/08/29 01:52:09;;;;;;;12.03;2.40;;;;;;;13.95;100.00;101384.84;5016472;28;20443;-72
2022/08/29 01:54:35;;;;;;;5.83;1.97;;;;;;;13.95;100.00;101379.38;5016010;28;20841;-71
2022/08/29 01:57:02;;;;;;;4.63;2.00;;;;;;;13.91;100.00;101386.53;5016373;28;20440;-71
2022/08/29 01:59:32;;;;;;;4.87;1.60;;;;;;;13.89;100.00;101379.47;5016461;28;20440;-71
2022/08/29 02:02:02;;;;;;;5.20;2.37;;;;;;;13.95;100.00;101382.09;5016225;28;20448;-71
2022/08/29 02:04:29;;;;;;;7.20;2.07;;;;;;;13.86;100.00;101380.09;5016097;28;20468;-70
2022/08/29 02:06:55;;;;;;;6.13;1.90;;;;;;;13.93;100.00;101387.03;5016232;28;20447;-71
2022/08/29 02:09:22;;;;;;;9.23;2.20;;;;;;;13.93;100.00;101397.94;5016089;28;20480;-71
2022/08/29 02:11:49;;;;;;;6.03;2.60;;;;;;;13.87;100.00;101389.88;5016196;28;20458;-71
2022/08/29 02:14:16;;;;;;;6.60;2.30;;;;;;;13.89;100.00;101390.34;5016097;28;20440;-71
2022/08/29 02:16:44;;;;;;;6.47;2.27;;;;;;;13.93;100.00;101392.47;5015601;28;20527;-70
2022/08/29 02:19:10;;;;;;;8.90;2.33;;;;;;;13.83;100.00;101394.31;5015885;28;20473;-71
2022/08/29 02:21:37;;;;;;;7.90;2.87;;;;;;;13.92;100.00;101390.88;5015917;28;20591;-70
2022/08/29 02:24:05;;;;;;;6.93;2.63;;;;;;;13.97;100.00;101382.59;5015940;28;20444;-71
2022/08/29 02:26:32;;;;;;;7.67;2.37;;;;;;;13.99;100.00;101380.38;5015661;28;20492;-70
2022/08/29 02:29:00;;;;;;;6.40;2.33;;;;;;;13.97;100.00;101386.13;5015565;28;21014;-71
2022/08/29 02:31:28;;;;;;;9.33;2.57;;;;;;;13.92;100.00;101385.44;5015265;28;20992;-71
2022/08/29 02:33:56;;;;;;;5.90;2.43;;;;;;;13.91;99.91;101387.34;5015736;28;20938;-71
2022/08/29 02:36:23;;;;;;;8.87;2.70;;;;;;;13.92;100.00;101390.88;5015180;28;20475;-71
2022/08/29 02:38:49;;;;;;;10.10;2.40;;;;;;;13.88;100.00;101388.75;5015425;28;20795;-71
2022/08/29 02:41:16;;;;;;;5.20;2.13;;;;;;;13.93;100.00;101392.47;5014718;28;20440;-71
2022/08/29 02:43:43;;;;;;;6.37;2.10;;;;;;;13.93;99.90;101387.84;5015141;28;20448;-71
2022/08/29 02:46:13;;;;;;;6.60;1.90;;;;;;;13.89;99.85;101393.09;5015613;28;20471;-72
2022/08/29 02:48:40;;;;;;;9.07;2.90;;;;;;;13.82;100.00;101386.44;5015649;28;20443;-71
2022/08/29 02:51:07;;;;;;;9.80;2.30;;;;;;;13.81;100.00;101390.25;5014838;28;21064;-72
2022/08/29 02:53:34;;;;;;;9.50;2.03;;;;;;;13.83;100.00;101388.06;5015036;28;20456;-71
2022/08/29 02:56:01;;;;;;;5.53;2.17;;;;;;;13.76;100.00;101387.63;5015223;28;20468;-69
2022/08/29 02:58:28;;;;;;;6.20;1.87;;;;;;;13.77;100.00;101392.00;5015259;28;20440;-70
2022/08/29 03:00:55;;;;;;;6.83;2.63;;;;;;;13.76;100.00;101388.44;5014783;28;20444;-70
2022/08/29 03:03:21;;;;;;;8.70;1.57;;;;;;;13.73;100.00;101385.53;5015148;28;20452;-69
2022/08/29 03:05:48;;;;;;;10.10;2.60;;;;;;;13.69;100.00;101376.38;5015059;28;20468;-70
2022/08/29 03:08:17;;;;;;;6.00;2.50;;;;;;;13.63;100.00;101384.63;5015177;28;20439;-67
2022/08/29 03:10:44;;;;;;;7.10;2.93;;;;;;;13.71;100.00;101379.56;5014943;28;20488;-70
2022/08/29 03:13:11;;;;;;;5.77;1.90;;;;;;;13.62;100.00;101376.75;5015179;28;20474;-70
2022/08/29 03:15:37;;;;;;;7.73;2.60;;;;;;;13.57;100.00;101377.66;5015077;28;20460;-69
2022/08/29 03:18:05;;;;;;;3.93;1.73;;;;;;;13.56;100.00;101378.78;5014552;28;20448;-70
2022/08/29 03:20:34;;;;;;;8.10;1.87;;;;;;;13.53;100.00;101382.09;5014979;28;20866;-69
2022/08/29 03:23:01;;;;;;;5.70;2.07;;;;;;;13.46;100.00;101383.59;5014725;28;20455;-70
2022/08/29 03:25:29;;;;;;;6.60;1.90;;;;;;;13.49;100.00;101377.53;5014658;28;20518;-69
2022/08/29 03:27:58;;;;;;;7.43;2.80;;;;;;;13.45;100.00;101381.97;5039766;22;20558;-73
2022/08/29 03:30:26;;;;;;;16.20;3.17;;;;;;;13.44;100.00;101386.63;5014466;28;20494;-73
2022/08/29 03:32:53;;;;;;;5.83;1.83;;;;;;;13.43;100.00;101386.94;5014690;28;20448;-74
2022/08/29 03:35:21;;;;;;;6.80;2.53;;;;;;;13.49;100.00;101372.09;5019068;28;20444;-76
2022/08/29 03:37:48;;;;;;;7.07;2.20;;;;;;;13.51;100.00;101383.50;5014701;28;20476;-75
2022/08/29 03:40:16;;;;;;;19.67;2.83;;;;;;;13.42;100.00;101374.44;5014303;28;20436;-71
2022/08/29 03:42:45;;;;;;;6.80;2.27;;;;;;;13.45;100.00;101373.81;5014224;28;20478;-72
2022/08/29 03:45:13;;;;;;;7.07;2.63;;;;;;;13.48;100.00;101376.75;5014187;28;20443;-71
2022/08/29 03:47:40;;;;;;;6.03;2.10;;;;;;;13.49;100.00;101377.53;5013710;28;20890;-71
2022/08/29 03:50:08;;;;;;;6.60;2.40;;;;;;;13.52;100.00;101376.94;5014052;28;20519;-71
2022/08/29 03:52:34;;;;;;;7.33;2.87;;;;;;;13.53;100.00;101370.41;5012823;28;20941;-71
2022/08/29 03:55:02;;;;;;;5.53;2.00;;;;;;;13.50;100.00;101376.44;5014288;28;20828;-71
2022/08/29 03:57:31;;;;;;;12.00;3.77;;;;;;;13.42;100.00;101367.06;5013635;28;20819;-71
2022/08/29 04:00:00;;;;;;;8.10;2.23;;;;;;;13.45;100.00;101365.66;5013985;28;20439;-72
2022/08/29 04:02:27;;;;;;;5.97;2.73;;;;;;;13.48;100.00;101374.03;5013954;28;20455;-71
2022/08/29 04:05:08;;;;;;;10.53;3.03;;;;;;;13.46;100.00;101376.25;5014007;28;20439;-71
2022/08/29 04:07:47;;;;;;;5.27;1.90;;;;;;;13.48;100.00;101381.38;5014564;28;20841;-71
2022/08/29 04:10:18;;;;;;;6.03;2.63;;;;;;;13.51;100.00;101392.47;5013844;28;20847;-71
2022/08/29 04:12:44;;;;;;;6.43;2.10;;;;;;;13.41;100.00;101386.41;5013824;28;20436;-71
2022/08/29 04:15:12;;;;;;;6.07;2.30;;;;;;;13.45;100.00;101390.13;5013810;28;20810;-71
2022/08/29 04:17:39;;;;;;;5.43;2.07;;;;;;;13.53;100.00;101390.25;5013376;28;21001;-71
2022/08/29 04:20:08;;;;;;;5.10;2.07;;;;;;;13.55;100.00;101393.50;5013479;28;20814;-71
2022/08/29 04:22:36;;;;;;;7.97;2.50;;;;;;;13.61;100.00;101397.72;5013536;28;20440;-70
2022/08/29 04:25:05;;;;;;;10.93;2.50;;;;;;;13.69;100.00;101392.69;5013405;28;20957;-71
2022/08/29 04:27:32;;;;;;;10.50;2.00;;;;;;;13.75;100.00;101391.47;5013393;28;20503;-70
2022/08/29 04:29:58;;;;;;;7.87;2.30;;;;;;;13.86;100.00;101401.06;5013589;28;20494;-76
2022/08/29 04:32:26;;;;;;;7.53;2.53;;;;;;;13.86;100.00;101393.72;5013616;28;20448;-72
2022/08/29 04:34:56;;;;;;;5.30;2.40;;;;;;;13.88;100.00;101396.94;5013637;28;20459;-71
2022/08/29 04:37:22;;;;;;;6.23;3.13;;;;;;;13.91;99.65;101405.63;5013333;28;20495;-71
2022/08/29 04:39:49;;;;;;;7.83;2.23;;;;;;;13.94;99.88;101394.09;5013110;28;20436;-71
2022/08/29 04:42:16;;;;;;;8.70;2.50;;;;;;;13.98;100.00;101397.81;5013454;28;20449;-70
2022/08/29 04:44:43;;;;;;;13.23;2.97;;;;;;;14.02;99.15;101407.00;5013475;28;20873;-71
2022/08/29 04:47:10;;;;;;;6.77;2.23;;;;;;;14.00;99.65;101396.44;5013332;28;20535;-71
2022/08/29 04:49:38;;;;;;;7.20;2.77;;;;;;;14.06;100.00;101399.84;5013293;28;20942;-75
2022/08/29 04:52:05;;;;;;;7.90;2.53;;;;;;;14.09;100.00;101396.53;5013457;28;20499;-71
2022/08/29 04:54:31;;;;;;;5.60;2.50;;;;;;;14.21;99.89;101396.81;5012934;28;20447;-71
2022/08/29 04:57:01;;;;;;;5.97;2.23;;;;;;;14.28;99.56;101399.91;5013259;28;20833;-71
2022/08/29 04:59:28;;;;;;;6.73;2.07;;;;;;;14.31;99.40;101407.47;5013678;28;20452;-71
2022/08/29 05:01:54;;;;;;;9.20;2.70;;;;;;;14.35;99.27;101397.59;5013294;28;20440;-71
2022/08/29 05:04:21;;;;;;;9.90;2.10;;;;;;;14.42;99.69;101399.06;5016334;28;20440;-71
2022/08/29 05:06:48;;;;;;;8.40;3.00;;;;;;;14.50;98.75;101406.56;5016783;28;20451;-71
2022/08/29 05:09:15;;;;;;;7.43;2.30;;;;;;;14.52;99.49;101404.31;5016988;28;20448;-71
2022/08/29 05:11:42;;;;;;;6.33;2.30;;;;;;;14.65;98.80;101403.47;5016985;28;20491;-71
2022/08/29 05:14:09;;;;;;;6.03;2.30;;;;;;;14.74;97.78;101407.09;5017022;28;20555;-74
2022/08/29 05:16:36;;;;;;;6.43;2.20;;;;;;;14.81;97.50;101407.47;5016530;28;20455;-73
2022/08/29 05:19:05;;;;;;;8.27;2.30;;;;;;;14.92;97.57;101409.94;5016710;28;20447;-71
2022/08/29 05:21:34;;;;;;;7.40;2.87;;;;;;;14.99;96.01;101407.59;5016970;28;20443;-72
2022/08/29 05:24:04;;;;;;;7.63;2.77;;;;;;;14.94;96.60;101410.44;5016785;28;20807;-72
2022/08/29 05:26:32;;;;;;;5.20;2.10;;;;;;;14.97;97.31;101415.28;5016745;28;20444;-72
2022/08/29 05:28:58;;;;;;;6.53;2.33;;;;;;;15.03;95.92;101416.78;5016745;28;20467;-71
2022/08/29 05:31:25;;;;;;;5.90;2.27;;;;;;;14.99;96.76;101416.56;5016550;28;21047;-72
2022/08/29 05:33:52;;;;;;;6.93;2.87;;;;;;;15.03;96.78;101419.50;5016367;28;20448;-71
2022/08/29 05:36:19;;;;;;;5.73;2.60;;;;;;;15.01;97.02;101417.09;5016568;28;20444;-73
2022/08/29 05:38:45;;;;;;;4.77;2.23;;;;;;;15.08;97.32;101416.63;5016451;28;20503;-72
2022/08/29 05:41:13;;;;;;;6.10;2.53;;;;;;;15.18;96.89;101423.75;5016462;28;20447;-72
2022/08/29 05:43:39;;;;;;;6.70;2.60;;;;;;;15.24;96.85;101420.59;5016398;28;20446;-72
2022/08/29 05:46:08;;;;;;;5.47;2.20;;;;;;;15.30;96.39;101424.81;5016370;28;20964;-72
2022/08/29 05:48:35;;;;;;;6.97;2.43;;;;;;;15.34;96.50;101425.00;5016582;28;20855;-72
2022/08/29 05:51:02;;;;;;;5.70;2.23;;;;;;;15.37;96.55;101435.28;5016327;28;20483;-73
2022/08/29 05:53:28;;;;;;;9.07;3.10;;;;;;;15.48;96.21;101428.44;5016530;28;20455;-72
2022/08/29 05:55:55;;;;;;;8.17;2.70;;;;;;;15.55;95.85;101425.28;5016223;28;20506;-72
2022/08/29 05:58:23;;;;;;;9.60;2.70;;;;;;;15.57;96.27;101423.03;5016186;28;20467;-73
2022/08/29 06:00:50;;;;;;;7.83;2.60;;;;;;;15.58;97.12;101435.56;5016125;28;20520;-73
2022/08/29 06:03:16;;;;;;;7.53;2.63;;;;;;;15.61;96.68;101427.53;5016011;28;20455;-72
2022/08/29 06:05:43;;;;;;;7.70;3.70;;;;;;;15.61;96.84;101429.47;5015805;28;20945;-71
2022/08/29 06:08:10;;;;;;;8.10;3.30;;;;;;;15.61;96.95;101429.47;5015968;28;20472;-74
2022/08/29 06:10:42;;;;;;;8.77;2.67;;;;;;;15.68;96.54;101438.06;5017638;28;20459;-74
2022/08/29 06:13:08;;;;;;;7.10;2.50;;;;;;;15.79;96.58;101430.38;5016020;28;20460;-74
2022/08/29 06:15:36;;;;;;;9.00;3.40;;;;;;;15.84;97.16;101427.50;5014950;28;20491;-74
2022/08/29 06:18:04;;;;;;;5.83;2.30;;;;;;;15.89;96.59;101435.56;5015877;28;20468;-74
2022/08/29 06:20:30;;;;;;;5.40;2.50;;;;;;;15.92;97.37;101431.41;5015808;28;20871;-74
2022/08/29 06:22:57;;;;;;;6.07;2.30;;;;;;;15.96;96.25;101426.91;5016176;28;20527;-74
2022/08/29 06:25:23;;;;;;;7.27;2.27;;;;;;;15.92;95.85;101434.13;5015741;28;20506;-74
2022/08/29 06:27:53;;;;;;;9.70;2.57;;;;;;;16.00;96.45;101441.56;5015056;28;20476;-74
2022/08/29 06:30:19;;;;;;;4.90;1.90;;;;;;;16.05;96.69;101438.69;5015828;28;20448;-74
2022/08/29 06:32:47;;;;;;;9.30;3.07;;;;;;;16.09;96.99;101442.38;5015461;28;20523;-74
2022/08/29 06:35:14;;;;;;;10.63;2.40;;;;;;;16.08;97.33;101443.50;5015505;28;20452;-75
2022/08/29 06:37:41;;;;;;;6.87;2.83;;;;;;;16.19;96.95;101444.00;5015348;28;20522;-74
2022/08/29 06:40:08;;;;;;;5.13;1.93;;;;;;;16.24;96.05;101452.88;5015110;28;20952;-74
2022/08/29 06:42:35;;;;;;;6.63;2.73;;;;;;;16.36;96.42;101461.28;5015415;28;20440;-74
2022/08/29 06:45:01;;;;;;;6.83;3.27;;;;;;;16.47;96.69;101463.69;5015392;28;20470;-74
2022/08/29 06:47:28;;;;;;;8.67;2.20;;;;;;;16.58;95.40;101456.81;5014898;28;20926;-75
2022/08/29 06:49:55;;;;;;;7.47;2.80;;;;;;;16.64;94.88;101455.50;5015318;28;20455;-74
2022/08/29 06:52:22;;;;;;;8.30;2.40;;;;;;;16.68;94.40;101472.91;5015435;28;20488;-74
2022/08/29 06:54:48;;;;;;;4.60;1.87;;;;;;;16.73;93.79;101459.09;5015260;28;20455;-74
2022/08/29 06:57:15;;;;;;;7.97;2.20;;;;;;;16.76;93.82;101466.66;5014974;28;20464;-73
2022/08/29 06:59:41;;;;;;;5.53;2.17;;;;;;;16.81;94.30;101465.69;5015198;28;20448;-72
2022/08/29 07:02:08;;;;;;;12.50;3.30;;;;;;;16.86;94.61;101466.34;5016458;28;20790;-78
2022/08/29 07:04:34;;;;;;;16.60;3.00;;;;;;;16.96;94.98;101465.22;5019491;28;20471;-75
2022/08/29 07:07:04;;;;;;;7.37;3.40;;;;;;;17.04;94.33;101469.06;5014821;28;20468;-73
2022/08/29 07:09:31;;;;;;;5.90;2.50;;;;;;;17.15;94.63;101470.38;5014848;28;20448;-74
2022/08/29 07:11:57;;;;;;;7.20;2.53;;;;;;;17.18;93.99;101469.72;5014791;28;20939;-73
2022/08/29 07:14:24;;;;;;;6.73;2.97;;;;;;;17.13;93.61;101470.69;5014663;28;20455;-75
2022/08/29 07:16:50;;;;;;;7.77;2.13;;;;;;;17.22;93.46;101472.59;5014972;28;20443;-75
2022/08/29 07:19:17;;;;;;;6.57;2.07;;;;;;;17.18;92.81;101477.13;5014619;28;20580;-74
2022/08/29 07:21:43;;;;;;;6.53;2.77;;;;;;;17.16;92.34;101477.44;5014415;28;20463;-73
2022/08/29 07:24:12;;;;;;;5.30;2.30;;;;;;;17.07;92.70;101487.59;5014527;28;20444;-72
2022/08/29 07:26:42;;;;;;;4.73;2.40;;;;;;;17.04;93.90;101490.97;5014389;28;20491;-73
2022/08/29 07:29:11;;;;;;;4.27;2.03;;;;;;;17.05;93.87;101487.94;5014540;28;20439;-75
2022/08/29 07:31:38;;;;;;;4.97;2.00;;;;;;;17.02;93.84;101483.09;5014397;28;20490;-75
2022/08/29 07:34:05;;;;;;;8.57;3.13;;;;;;;17.04;94.13;101489.03;5014475;28;20479;-74
2022/08/29 07:36:32;;;;;;;6.90;2.43;;;;;;;17.06;94.25;101486.00;5014622;28;20440;-74
2022/08/29 07:38:59;;;;;;;7.33;2.73;;;;;;;17.10;93.86;101484.22;5014244;28;20538;-74
2022/08/29 07:41:27;;;;;;;8.53;2.20;;;;;;;17.12;94.50;101493.72;5014405;28;20466;-74
2022/08/29 07:43:54;;;;;;;5.90;2.40;;;;;;;17.15;94.98;101484.06;5014139;28;20447;-74
2022/08/29 07:46:21;;;;;;;10.73;3.17;;;;;;;17.24;95.33;101490.31;5014013;28;20447;-75
2022/08/29 07:48:48;;;;;;;5.00;1.90;;;;;;;17.21;94.54;101487.44;5014192;28;20468;-74
2022/08/29 07:51:17;;;;;;;6.37;2.67;;;;;;;17.30;94.71;101486.28;5013996;28;20487;-74
2022/08/29 07:53:44;;;;;;;8.43;2.60;;;;;;;17.45;94.44;101489.66;5013940;28;20448;-74
2022/08/29 07:56:13;;;;;;;6.73;2.77;;;;;;;17.51;93.56;101493.84;5013690;28;20432;-74
2022/08/29 07:58:42;;;;;;;6.80;3.20;;;;;;;17.47;92.74;101498.34;5013912;28;20468;-74
2022/08/29 08:01:08;;;;;;;4.77;2.07;;;;;;;17.37;93.34;101497.56;5013970;28;20856;-74
2022/08/29 08:03:35;;;;;;;5.80;2.40;;;;;;;17.30;94.16;101494.50;5013903;28;20444;-74
2022/08/29 08:06:02;;;;;;;9.50;2.23;;;;;;;17.43;94.24;101500.94;5013923;28;20819;-74
2022/08/29 08:08:29;;;;;;;6.50;2.90;;;;;;;17.48;94.17;101499.94;5013802;28;20511;-74
2022/08/29 08:10:55;;;;;;;6.93;2.97;;;;;;;17.53;93.01;101503.34;5014004;28;20456;-74
2022/08/29 08:13:22;;;;;;;6.97;2.33;;;;;;;17.72;92.73;101508.44;5013817;28;20437;-74
2022/08/29 08:15:50;;;;;;;5.33;2.13;;;;;;;17.75;92.60;101510.59;5013563;28;20436;-74
2022/08/29 08:18:17;;;;;;;7.63;2.80;;;;;;;17.86;92.39;101511.03;5013676;28;20467;-74
2022/08/29 08:20:47;;;;;;;7.73;2.70;;;;;;;17.84;92.33;101521.50;5013719;28;20456;-75
2022/08/29 08:23:14;;;;;;;6.70;2.97;;;;;;;17.78;91.51;101522.81;5013876;28;20439;-74
2022/08/29 08:25:40;;;;;;;5.20;1.93;;;;;;;17.85;92.12;101518.44;5013324;28;20444;-73
2022/08/29 08:28:06;;;;;;;10.83;3.00;;;;;;;17.80;92.16;101515.88;5013430;28;20476;-73
2022/08/29 08:30:33;;;;;;;7.90;2.80;;;;;;;17.88;91.85;101526.03;5013513;28;20819;-74
2022/08/29 08:33:01;;;;;;;6.73;2.80;;;;;;;17.87;91.94;101518.91;5013610;28;20487;-75
2022/08/29 08:35:28;;;;;;;11.50;2.70;;;;;;;17.99;92.20;101515.50;5013476;28;20478;-75
2022/08/29 08:37:55;;;;;;;5.23;2.60;;;;;;;18.03;91.07;101523.88;5014296;28;20589;-74
2022/08/29 08:40:26;;;;;;;7.80;3.10;;;;;;;18.10;90.53;101521.41;5017521;28;20451;-74
2022/08/29 08:42:59;;;;;;;7.97;2.50;;;;;;;18.04;91.12;101517.25;5017431;28;20874;-74
2022/08/29 08:45:30;;;;;;;9.97;2.57;;;;;;;18.05;91.45;101519.66;5017415;28;20838;-74
2022/08/29 08:48:06;;;;;;;8.20;3.13;;;;;;;18.11;91.97;101529.31;5017399;28;20546;-74
2022/08/29 08:50:45;;;;;;;9.20;2.67;;;;;;;18.22;91.79;101535.22;5017408;28;20871;-72
2022/08/29 08:53:18;;;;;;;6.00;2.80;;;;;;;18.32;91.94;101526.63;5017321;28;20479;-74
2022/08/29 08:55:48;;;;;;;6.60;2.87;;;;;;;18.44;91.35;101525.94;5017472;28;20431;-74
2022/08/29 08:58:25;;;;;;;7.23;1.77;;;;;;;18.53;91.20;101518.44;5016876;28;20890;-73
2022/08/29 09:00:56;;;;;;;6.00;3.00;;;;;;;18.61;90.53;101525.03;5017235;28;20432;-75
2022/08/29 09:03:57;;;;;;;5.27;2.40;;;;;;;18.59;90.48;101517.13;5017328;28;20861;-74
2022/08/29 09:06:36;;;;;;;9.07;2.60;;;;;;;18.67;89.75;101519.00;5009444;28;20529;-74
2022/08/29 09:09:12;;;;;;;8.90;2.67;;;;;;;18.75;90.74;101511.88;5016785;28;20906;-75
2022/08/29 09:11:52;;;;;;;6.63;2.43;;;;;;;18.90;90.46;101519.53;5017089;28;20472;-74
2022/08/29 09:14:32;;;;;;;8.43;3.23;;;;;;;18.94;89.63;101522.41;5016782;28;20948;-74
2022/08/29 09:17:00;;;;;;;9.00;3.07;;;;;;;18.99;89.70;101532.38;5017075;28;20479;-74
2022/08/29 09:19:28;;;;;;;10.50;2.53;;;;;;;18.99;89.02;101530.47;5016952;28;20443;-74
2022/08/29 09:22:00;;;;;;;5.90;2.57;;;;;;;18.98;89.76;101528.03;5017041;28;20822;-75
2022/08/29 09:24:33;;;;;;;12.13;3.33;;;;;;;19.06;89.53;101536.19;5016801;28;20416;-74
2022/08/29 09:27:00;;;;;;;6.80;2.90;;;;;;;19.04;89.94;101532.19;5016597;28;20499;-74
2022/08/29 09:29:30;;;;;;;5.83;2.20;;;;;;;19.06;89.51;101535.41;5016774;28;20432;-74
2022/08/29 09:32:07;;;;;;;6.93;3.10;;;;;;;19.07;88.85;101534.25;5016681;28;20484;-75
2022/08/29 09:34:37;;;;;;;6.43;3.27;;;;;;;19.00;90.26;101536.75;5016387;28;20412;-74
2022/08/29 09:37:21;;;;;;;6.97;2.53;;;;;;;18.98;91.04;101537.06;5016604;28;20475;-74
2022/08/29 09:39:53;;;;;;;14.73;2.90;;;;;;;19.06;90.59;101535.41;5016543;28;20424;-74
2022/08/29 09:42:22;;;;;;;5.70;2.53;;;;;;;19.16;90.16;101541.28;5016090;28;20439;-75
2022/08/29 09:44:54;;;;;;;18.13;3.83;;;;;;;19.20;89.85;101541.41;5016457;28;20444;-74
2022/08/29 09:47:23;;;;;;;5.07;2.23;;;;;;;19.15;90.72;101544.38;5016089;28;20476;-74
2022/08/29 09:50:05;;;;;;;6.17;2.70;;;;;;;19.17;90.29;101542.09;5016333;28;20490;-75
2022/08/29 09:52:36;;;;;;;5.73;3.03;;;;;;;19.24;89.96;101538.81;5015817;28;21079;-74
2022/08/29 09:55:29;;;;;;;7.00;3.40;;;;;;;19.53;89.62;101543.41;5016231;28;20432;-74
2022/08/29 09:57:59;;;;;;;12.93;3.33;;;;;;;19.59;88.24;101542.84;5013941;28;20479;-74
2022/08/29 10:00:30;;;;;;;6.17;2.50;;;;;;;19.82;87.68;101545.22;5016082;28;20450;-74
2022/08/29 10:02:59;;;;;;;6.40;2.27;;;;;;;19.74;87.11;101549.66;5015925;28;20527;-74
2022/08/29 10:05:45;;;;;;;9.60;2.80;;;;;;;19.91;87.48;101543.19;5016118;28;20440;-73
2022/08/29 10:08:29;;;;;;;5.40;2.60;;;;;;;20.05;85.97;101549.16;5015788;28;20978;-75
2022/08/29 10:10:58;;;;;;;8.10;3.50;;;;;;;20.14;85.59;101543.53;5016347;28;20848;-74
2022/08/29 10:13:32;;;;;;;5.70;2.37;;;;;;;20.10;86.12;101550.91;5015573;28;20487;-75
2022/08/29 10:16:07;;;;;;;5.90;2.60;;;;;;;20.27;84.79;101547.13;5015915;28;20482;-74
2022/08/29 10:18:44;;;;;;;7.63;3.33;;;;;;;20.34;85.25;101550.09;5015422;28;20870;-75
2022/08/29 10:21:32;;;;;;;5.23;2.30;;;;;;;20.36;84.16;101547.81;5015825;28;20432;-75
2022/08/29 10:24:17;;;;;;;6.27;2.80;;;;;;;20.30;84.93;101543.69;5015694;28;20429;-74
2022/08/29 10:26:53;;;;;;;8.50;2.77;;;;;;;20.28;84.94;101546.78;5015654;28;20432;-75
2022/08/29 10:29:31;;;;;;;6.60;2.40;;;;;;;20.31;84.92;101550.78;5015291;28;20804;-75
2022/08/29 10:32:06;;;;;;;6.30;2.90;;;;;;;20.24;84.79;101553.31;5015595;28;20425;-74
2022/08/29 10:34:51;;;;;;;5.87;2.40;;;;;;;20.25;86.14;101541.97;5015129;28;20905;-74
2022/08/29 10:37:28;;;;;;;12.53;3.10;;;;;;;20.24;85.18;101556.88;5015153;28;20483;-74
2022/08/29 10:40:00;;;;;;;7.30;2.67;;;;;;;20.11;85.80;101558.00;5015500;28;20437;-74
2022/08/29 10:42:31;;;;;;;5.67;2.53;;;;;;;20.16;86.27;101558.59;5015417;28;20478;-74
2022/08/29 10:45:12;;;;;;;4.33;2.00;;;;;;;20.02;87.15;101565.56;5015215;28;20451;-74
2022/08/29 10:47:40;;;;;;;5.47;2.60;;;;;;;20.05;87.18;101562.09;5015182;28;20554;-73
2022/08/29 10:50:29;;;;;;;5.03;2.50;;;;;;;19.99;86.28;101560.72;5014881;28;20972;-75
2022/08/29 10:53:03;;;;;;;5.80;2.53;;;;;;;20.01;86.32;101575.75;5015134;28;20888;-75
2022/08/29 10:55:41;;;;;;;8.50;2.77;;;;;;;20.04;85.87;101566.00;5014876;28;20428;-75
2022/08/29 10:58:11;;;;;;;8.30;2.70;;;;;;;20.11;86.23;101569.81;5015047;28;20463;-74
2022/08/29 11:00:43;;;;;;;6.40;2.87;;;;;;;20.20;85.68;101564.22;5015156;28;20444;-75
2022/08/29 11:03:19;;;;;;;5.53;2.60;;;;;;;20.48;84.40;101558.84;5014810;28;20428;-74
2022/08/29 11:05:50;;;;;;;6.27;2.77;;;;;;;20.74;84.51;101550.22;5015044;28;20432;-75
2022/08/29 11:08:23;;;;;;;9.23;2.80;;;;;;;21.01;82.70;101556.94;5015064;28;20460;-75
2022/08/29 11:10:52;;;;;;;6.80;2.50;;;;;;;21.45;82.53;101553.50;5014806;28;20471;-74
2022/08/29 11:13:23;;;;;;;12.53;3.20;;;;;;;21.77;81.59;101546.91;5014772;28;20587;-74
2022/08/29 11:16:00;;;;;;;5.80;2.47;;;;;;;21.87;78.36;101554.66;5014701;28;20447;-74
2022/08/29 11:18:35;;;;;;;9.30;3.60;;;;;;;22.20;77.11;101545.28;5014699;28;20825;-75
2022/08/29 11:21:09;;;;;;;4.90;2.43;;;;;;;22.78;75.30;101550.97;5014727;28;20428;-75
2022/08/29 11:23:39;;;;;;;4.97;2.10;;;;;;;23.46;72.49;101546.06;5014769;28;20423;-75
2022/08/29 11:26:12;;;;;;;5.23;2.20;;;;;;;24.38;69.39;101545.00;5014655;28;20455;-75
2022/08/29 11:28:49;;;;;;;4.50;2.17;;;;;;;24.77;65.07;101543.97;5014352;28;20483;-75
2022/08/29 11:31:22;;;;;;;4.40;2.10;;;;;;;25.11;62.62;101553.19;5014267;28;20926;-75